Time;durP1;ratioP1;P1;durP2;ratioP2;P2;SDS_P1;SDS_P2;PMS_P1;PMS_P2;Temp;Humidity;BMP_temperature;BMP_pressure;BME280_temperature;BME280_humidity;BME280_pressure;Samples;Min_cycle;Max_cycle;Signal;HPM_P1;HPM_P2
2023/09/07 00:00:28;;;;;;;21.70;10.50;;;;;;;18.22;100.00;101754.81;5073866;28;20036;-67
2023/09/07 00:02:54;;;;;;;21.42;11.27;;;;;;;18.14;100.00;101764.72;5073710;28;20025;-67
2023/09/07 00:05:19;;;;;;;21.50;11.65;;;;;;;18.19;100.00;101755.75;5089159;28;20394;-67
2023/09/07 00:07:44;;;;;;;22.02;12.00;;;;;;;18.14;100.00;101759.38;5072089;28;20105;-67
2023/09/07 00:10:10;;;;;;;22.50;11.50;;;;;;;18.14;100.00;101762.06;5073566;28;20024;-67
2023/09/07 00:12:39;;;;;;;21.75;11.50;;;;;;;18.12;100.00;101760.28;5073311;28;20032;-67
2023/09/07 00:15:06;;;;;;;22.10;10.68;;;;;;;18.07;100.00;101759.47;5071891;28;20081;-67
2023/09/07 00:17:31;;;;;;;24.13;11.10;;;;;;;18.07;100.00;101755.88;5073606;28;20117;-67
2023/09/07 00:19:58;;;;;;;21.90;10.93;;;;;;;18.10;100.00;101758.50;5073224;28;20104;-66
2023/09/07 00:22:25;;;;;;;22.35;10.80;;;;;;;17.99;100.00;101747.97;5073113;28;20078;-67
2023/09/07 00:24:51;;;;;;;20.77;10.50;;;;;;;17.99;100.00;101752.44;5073328;28;20032;-67
2023/09/07 00:27:16;;;;;;;21.92;10.40;;;;;;;17.90;100.00;101750.75;5073011;28;20429;-67
2023/09/07 00:29:42;;;;;;;19.58;9.50;;;;;;;17.71;100.00;101742.91;5073058;28;20556;-67
2023/09/07 00:32:07;;;;;;;19.77;8.95;;;;;;;17.57;100.00;101736.81;5071856;28;20119;-68
2023/09/07 00:34:33;;;;;;;19.30;9.20;;;;;;;17.49;100.00;101738.66;5071754;28;20078;-69
2023/09/07 00:37:00;;;;;;;20.38;9.65;;;;;;;17.40;100.00;101727.19;5072915;28;20498;-69
2023/09/07 00:39:25;;;;;;;21.05;10.00;;;;;;;17.50;100.00;101733.31;5069145;28;20235;-69
2023/09/07 00:41:50;;;;;;;20.73;9.68;;;;;;;17.48;100.00;101734.25;5071489;28;20057;-69
2023/09/07 00:44:16;;;;;;;21.20;10.30;;;;;;;17.45;100.00;101731.63;5071580;28;20067;-69
2023/09/07 00:46:44;;;;;;;20.20;10.43;;;;;;;17.49;100.00;101734.22;5072922;28;20490;-69
2023/09/07 00:49:11;;;;;;;22.48;10.55;;;;;;;17.48;100.00;101739.59;5073233;28;20041;-69
2023/09/07 00:51:36;;;;;;;23.08;11.00;;;;;;;17.36;100.00;101740.59;5072898;28;20028;-69
2023/09/07 00:54:01;;;;;;;20.88;10.05;;;;;;;17.38;100.00;101745.00;5072957;28;20070;-69
2023/09/07 00:56:27;;;;;;;20.98;10.65;;;;;;;17.33;100.00;101737.94;5072732;28;20021;-69
2023/09/07 00:58:54;;;;;;;21.52;10.50;;;;;;;17.34;100.00;101743.25;5072343;28;20107;-70
2023/09/07 01:01:20;;;;;;;21.23;9.93;;;;;;;17.37;100.00;101747.69;5072665;28;20063;-69
2023/09/07 01:03:45;;;;;;;21.90;11.27;;;;;;;17.39;100.00;101754.81;5071418;28;20166;-70
2023/09/07 01:06:29;;;;;;;20.40;10.43;;;;;;;17.41;100.00;101739.63;5088327;28;20048;-70
2023/09/07 01:08:56;;;;;;;21.52;11.32;;;;;;;17.35;100.00;101744.16;5073061;28;20032;-69
2023/09/07 01:11:26;;;;;;;23.17;12.00;;;;;;;17.40;100.00;101735.22;5072395;28;20029;-70
2023/09/07 01:13:55;;;;;;;23.15;12.30;;;;;;;17.43;100.00;101736.97;5071218;28;20048;-70
2023/09/07 01:16:21;;;;;;;21.45;12.10;;;;;;;17.33;100.00;101736.16;5087663;28;20025;-69
2023/09/07 01:18:47;;;;;;;25.13;13.23;;;;;;;17.32;100.00;101733.50;5072705;28;20103;-69
2023/09/07 01:21:13;;;;;;;24.45;12.27;;;;;;;17.25;100.00;101738.91;5072618;28;20103;-70
2023/09/07 01:23:43;;;;;;;23.95;13.52;;;;;;;17.28;100.00;101724.63;5072598;28;20104;-69
2023/09/07 01:26:09;;;;;;;23.15;13.55;;;;;;;17.28;100.00;101743.31;5072588;28;20024;-68
2023/09/07 01:28:37;;;;;;;23.23;12.93;;;;;;;17.22;100.00;101732.72;5072418;28;20040;-67
2023/09/07 01:31:02;;;;;;;23.23;13.45;;;;;;;17.22;100.00;101728.25;5072258;28;20024;-67
2023/09/07 01:33:27;;;;;;;22.58;12.82;;;;;;;17.12;100.00;101731.03;5072474;28;20029;-68
2023/09/07 01:35:53;;;;;;;23.13;13.43;;;;;;;17.10;100.00;101738.19;5072301;28;20056;-68
2023/09/07 01:38:18;;;;;;;22.42;12.35;;;;;;;17.01;100.00;101724.00;5072485;28;20033;-68
2023/09/07 01:40:44;;;;;;;24.58;12.65;;;;;;;17.00;100.00;101730.22;5071976;28;20475;-67
2023/09/07 01:43:09;;;;;;;22.98;12.00;;;;;;;16.97;100.00;101729.38;5072393;28;20036;-68
2023/09/07 01:45:34;;;;;;;22.00;12.68;;;;;;;16.89;100.00;101724.06;5072402;28;20260;-68
2023/09/07 01:48:00;;;;;;;21.80;12.38;;;;;;;16.83;100.00;101730.31;5070915;28;20056;-68
2023/09/07 01:50:26;;;;;;;24.33;12.63;;;;;;;16.72;100.00;101726.84;5072150;28;20098;-67
2023/09/07 01:52:52;;;;;;;22.60;12.13;;;;;;;16.62;100.00;101720.69;5072528;28;20028;-68
2023/09/07 01:55:17;;;;;;;24.00;12.20;;;;;;;16.62;100.00;101723.34;5072102;28;20031;-67
2023/09/07 01:57:43;;;;;;;22.17;12.05;;;;;;;16.61;100.00;101726.91;5072113;28;20056;-66
2023/09/07 02:00:10;;;;;;;22.00;12.48;;;;;;;16.52;100.00;101724.31;5072195;28;20036;-67
2023/09/07 02:02:35;;;;;;;21.40;12.35;;;;;;;16.45;100.00;101725.25;5072012;28;20043;-68
2023/09/07 02:05:01;;;;;;;22.98;12.95;;;;;;;16.46;100.00;101727.03;5072116;28;20020;-67
2023/09/07 02:07:26;;;;;;;22.73;12.48;;;;;;;16.40;100.00;101725.28;5072207;28;20040;-68
2023/09/07 02:09:52;;;;;;;21.98;13.68;;;;;;;16.35;100.00;101727.06;5071929;28;20023;-68
2023/09/07 02:12:17;;;;;;;22.80;13.20;;;;;;;16.23;100.00;101728.03;5075529;28;20543;-67
2023/09/07 02:14:43;;;;;;;23.15;13.60;;;;;;;16.37;100.00;101728.84;5075883;28;20437;-68
2023/09/07 02:17:08;;;;;;;23.02;14.27;;;;;;;16.30;100.00;101724.44;5075572;28;20047;-67
2023/09/07 02:19:33;;;;;;;22.98;13.80;;;;;;;16.30;100.00;101726.22;5076051;28;20028;-66
2023/09/07 02:21:59;;;;;;;22.33;12.63;;;;;;;16.26;100.00;101725.34;5075495;28;20490;-67
2023/09/07 02:24:24;;;;;;;23.73;13.23;;;;;;;16.26;100.00;101728.00;5075436;28;20035;-68
2023/09/07 02:26:50;;;;;;;23.40;13.02;;;;;;;16.20;100.00;101725.38;5075634;28;20025;-68
2023/09/07 02:29:15;;;;;;;24.00;12.60;;;;;;;16.13;100.00;101727.19;5075289;28;20123;-68
2023/09/07 02:31:41;;;;;;;24.75;12.68;;;;;;;16.09;100.00;101725.44;5075326;28;20051;-68
2023/09/07 02:34:06;;;;;;;23.38;13.15;;;;;;;16.00;100.00;101718.38;5075590;28;20055;-67
2023/09/07 02:36:34;;;;;;;23.98;13.98;;;;;;;16.04;100.00;101725.44;5075200;28;20070;-68
2023/09/07 02:39:00;;;;;;;24.42;13.77;;;;;;;16.03;100.00;101721.03;5075307;28;20029;-68
2023/09/07 02:41:25;;;;;;;23.38;13.38;;;;;;;15.97;100.00;101725.50;5075455;28;20055;-67
2023/09/07 02:43:51;;;;;;;24.10;13.40;;;;;;;15.97;100.00;101726.38;5075191;28;20033;-67
2023/09/07 02:46:16;;;;;;;23.83;13.30;;;;;;;15.90;100.00;101727.31;5075410;28;20044;-67
2023/09/07 02:48:42;;;;;;;22.60;12.88;;;;;;;15.88;100.00;101721.06;5075166;28;20107;-67
2023/09/07 02:51:07;;;;;;;21.55;11.65;;;;;;;15.87;100.00;101724.63;5075131;28;20387;-67
2023/09/07 02:53:32;;;;;;;22.02;12.23;;;;;;;15.82;100.00;101716.66;5075002;28;20028;-66
2023/09/07 02:55:58;;;;;;;21.13;12.05;;;;;;;15.81;100.00;101716.66;5075366;28;20062;-68
2023/09/07 02:58:24;;;;;;;21.88;12.20;;;;;;;15.79;100.00;101711.34;5074857;28;20025;-67
2023/09/07 03:00:49;;;;;;;23.55;14.32;;;;;;;15.85;100.00;101718.44;5073801;28;20040;-67
2023/09/07 03:03:15;;;;;;;24.25;15.50;;;;;;;15.85;100.00;101710.44;5074980;28;20025;-66
2023/09/07 03:05:41;;;;;;;26.42;17.65;;;;;;;15.67;100.00;101709.56;5074688;28;20031;-68
2023/09/07 03:08:07;;;;;;;23.08;14.20;;;;;;;15.59;100.00;101710.47;5074867;28;20078;-71
2023/09/07 03:10:34;;;;;;;23.17;13.50;;;;;;;15.59;100.00;101716.69;5074897;28;20024;-71
2023/09/07 03:13:00;;;;;;;22.23;13.32;;;;;;;15.53;100.00;101719.38;5074411;28;20036;-71
2023/09/07 03:15:25;;;;;;;22.80;13.85;;;;;;;15.51;100.00;101726.50;5075017;28;20035;-70
2023/09/07 03:17:50;;;;;;;24.30;14.73;;;;;;;15.55;100.00;101728.25;5074474;28;20119;-70
2023/09/07 03:20:16;;;;;;;23.38;14.88;;;;;;;15.62;100.00;101723.78;5074373;28;20032;-71
2023/09/07 03:22:42;;;;;;;23.58;14.43;;;;;;;15.67;100.00;101725.56;5074151;28;20054;-71
2023/09/07 03:25:09;;;;;;;24.75;14.68;;;;;;;15.66;100.00;101725.56;5074309;28;20024;-68
2023/09/07 03:27:35;;;;;;;23.90;15.52;;;;;;;15.69;100.00;101720.22;5074809;28;20029;-66
2023/09/07 03:30:00;;;;;;;24.58;15.90;;;;;;;15.61;100.00;101728.25;5074518;28;20055;-71
2023/09/07 03:32:28;;;;;;;24.10;15.30;;;;;;;15.54;100.00;101720.25;5074074;28;20033;-69
2023/09/07 03:34:54;;;;;;;23.70;15.30;;;;;;;15.51;100.00;101721.16;5074129;28;20024;-71
2023/09/07 03:37:20;;;;;;;23.73;15.07;;;;;;;15.49;100.00;101723.84;5074218;28;20047;-70
2023/09/07 03:39:45;;;;;;;23.83;15.10;;;;;;;15.43;100.00;101722.94;5073984;28;20471;-71
2023/09/07 03:42:10;;;;;;;23.48;15.25;;;;;;;15.37;100.00;101733.63;5089496;28;20131;-71
2023/09/07 03:44:36;;;;;;;24.80;15.38;;;;;;;15.44;100.00;101740.72;5074053;28;20025;-63
2023/09/07 03:47:01;;;;;;;24.23;15.15;;;;;;;15.29;100.00;101736.28;5072633;28;20035;-64
2023/09/07 03:49:26;;;;;;;24.25;15.02;;;;;;;15.31;100.00;101738.06;5074121;28;20060;-64
2023/09/07 03:51:52;;;;;;;23.88;16.00;;;;;;;15.37;100.00;101738.94;5073867;28;20020;-64
2023/09/07 03:54:17;;;;;;;23.55;14.90;;;;;;;15.38;100.00;101738.03;5073756;28;20471;-67
2023/09/07 03:56:42;;;;;;;24.55;15.60;;;;;;;15.42;100.00;101735.41;5073865;28;20407;-67
2023/09/07 03:59:08;;;;;;;25.58;14.90;;;;;;;15.37;100.00;101737.16;5073609;28;20368;-68
2023/09/07 04:01:33;;;;;;;24.25;15.20;;;;;;;15.35;100.00;101744.28;5072406;28;20123;-67
2023/09/07 04:03:58;;;;;;;25.20;14.68;;;;;;;15.28;100.00;101739.84;5073792;28;20029;-66
2023/09/07 04:06:24;;;;;;;24.73;15.65;;;;;;;15.23;100.00;101730.97;5089120;28;20040;-67
2023/09/07 04:08:49;;;;;;;23.00;14.10;;;;;;;15.11;100.00;101731.88;5073476;28;20024;-67
2023/09/07 04:11:14;;;;;;;22.73;13.90;;;;;;;15.14;100.00;101729.19;5073792;28;20103;-67
2023/09/07 04:13:40;;;;;;;23.65;13.48;;;;;;;15.12;100.00;101733.66;5072042;28;20025;-68
2023/09/07 04:16:05;;;;;;;24.38;15.25;;;;;;;15.15;100.00;101723.00;5073520;28;20049;-67
2023/09/07 04:18:30;;;;;;;23.70;14.50;;;;;;;15.13;100.00;101727.41;5072236;28;20024;-67
2023/09/07 04:21:06;;;;;;;23.98;14.52;;;;;;;15.12;100.00;101728.31;5073194;28;20459;-67
2023/09/07 04:23:32;;;;;;;22.40;14.15;;;;;;;15.04;100.00;101727.44;5085666;28;20387;-67
2023/09/07 04:26:11;;;;;;;22.65;13.93;;;;;;;14.95;100.00;101731.84;5073349;28;20025;-67
2023/09/07 04:28:37;;;;;;;22.48;13.38;;;;;;;14.82;100.00;101736.31;5070597;28;20033;-67
2023/09/07 04:31:03;;;;;;;23.48;13.75;;;;;;;14.74;100.00;101738.06;5073009;28;20032;-67
2023/09/07 04:33:33;;;;;;;23.58;13.98;;;;;;;14.71;100.00;101738.06;5072102;28;20035;-66
2023/09/07 04:36:12;;;;;;;25.98;14.68;;;;;;;14.74;100.00;101743.38;5069226;28;20092;-67
2023/09/07 04:38:38;;;;;;;23.25;14.00;;;;;;;14.71;100.00;101740.72;5070426;28;20032;-72
2023/09/07 04:41:11;;;;;;;29.40;14.13;;;;;;;14.68;100.00;101738.06;5072979;28;20522;-68
2023/09/07 04:43:40;;;;;;;23.63;14.60;;;;;;;14.68;100.00;101742.47;5072744;28;20460;-71
2023/09/07 04:46:06;;;;;;;23.25;13.88;;;;;;;14.64;100.00;101738.94;5073128;28;20025;-70
2023/09/07 04:48:32;;;;;;;22.23;12.80;;;;;;;14.66;100.00;101738.94;5072807;28;20033;-65
2023/09/07 04:51:08;;;;;;;23.15;13.80;;;;;;;14.63;100.00;101740.72;5068754;28;20032;-67
2023/09/07 04:53:35;;;;;;;23.00;13.90;;;;;;;14.67;100.00;101732.75;5069787;28;20025;-64
2023/09/07 04:56:02;;;;;;;27.30;15.07;;;;;;;14.57;100.00;101734.44;5072940;28;20074;-64
2023/09/07 04:58:28;;;;;;;23.00;14.20;;;;;;;14.46;100.00;101734.44;5068734;28;20040;-63
2023/09/07 05:00:53;;;;;;;24.90;13.98;;;;;;;14.47;100.00;101741.53;5072836;28;20024;-68
2023/09/07 05:03:19;;;;;;;23.02;13.63;;;;;;;14.48;100.00;101741.53;5072902;28;20125;-65
2023/09/07 05:05:45;;;;;;;23.48;13.60;;;;;;;14.47;100.00;101745.09;5072603;28;20028;-65
2023/09/07 05:08:10;;;;;;;22.45;13.43;;;;;;;14.45;100.00;101743.31;5072704;28;20032;-65
2023/09/07 05:10:36;;;;;;;23.50;14.07;;;;;;;14.50;100.00;101749.50;5072472;28;20028;-64
2023/09/07 05:13:02;;;;;;;24.92;13.93;;;;;;;14.47;100.00;101750.41;5072426;28;20463;-64
2023/09/07 05:15:28;;;;;;;22.92;13.07;;;;;;;14.44;100.00;101752.16;5068720;28;20033;-64
2023/09/07 05:17:54;;;;;;;23.30;14.18;;;;;;;14.47;100.00;101749.50;5072574;28;20060;-65
2023/09/07 05:20:20;;;;;;;23.08;14.43;;;;;;;14.46;100.00;101755.72;5072394;28;20472;-66
2023/09/07 05:22:46;;;;;;;24.02;13.93;;;;;;;14.48;100.00;101761.94;5072640;28;20032;-65
2023/09/07 05:25:11;;;;;;;23.17;14.13;;;;;;;14.46;100.00;101758.38;5072652;28;20120;-68
2023/09/07 05:27:37;;;;;;;25.40;14.43;;;;;;;14.52;100.00;101763.72;5072509;28;20379;-67
2023/09/07 05:30:04;;;;;;;23.60;14.77;;;;;;;14.52;100.00;101766.38;5072623;28;20033;-62
2023/09/07 05:32:29;;;;;;;23.95;14.63;;;;;;;14.52;100.00;101757.47;5070460;28;20039;-65
2023/09/07 05:34:55;;;;;;;23.80;15.23;;;;;;;14.56;100.00;101760.19;5074482;28;20020;-63
2023/09/07 05:37:20;;;;;;;23.90;13.77;;;;;;;14.53;100.00;101768.13;5072039;28;20029;-62
2023/09/07 05:39:45;;;;;;;24.20;15.18;;;;;;;14.56;100.00;101756.63;5072227;28;20123;-60
2023/09/07 05:42:12;;;;;;;24.88;16.23;;;;;;;14.56;100.00;101762.84;5071932;28;20518;-63
2023/09/07 05:44:37;;;;;;;25.15;16.85;;;;;;;14.63;100.00;101772.66;5072638;28;20033;-66
2023/09/07 05:47:03;;;;;;;25.83;18.08;;;;;;;14.74;100.00;101771.78;5072146;28;20028;-62
2023/09/07 05:49:28;;;;;;;26.85;19.13;;;;;;;14.83;100.00;101774.44;5076130;28;20037;-64
2023/09/07 05:51:54;;;;;;;27.40;18.98;;;;;;;14.93;100.00;101770.03;5091620;28;20082;-61
2023/09/07 05:54:19;;;;;;;27.88;19.35;;;;;;;14.97;100.00;101766.50;5075932;28;20036;-60
2023/09/07 05:56:44;;;;;;;26.10;18.08;;;;;;;15.07;100.00;101778.00;5075669;28;20078;-71
2023/09/07 05:59:10;;;;;;;27.33;17.05;;;;;;;15.12;100.00;101786.91;5075728;28;20056;-61
2023/09/07 06:01:35;;;;;;;25.83;16.90;;;;;;;15.12;100.00;101789.56;5091410;28;20082;-62
2023/09/07 06:04:01;;;;;;;28.15;17.40;;;;;;;15.12;100.00;101793.09;5073851;28;20024;-69
2023/09/07 06:06:26;;;;;;;26.83;17.42;;;;;;;15.21;100.00;101786.03;5067320;28;20041;-65
2023/09/07 06:08:51;;;;;;;27.00;17.52;;;;;;;15.24;100.00;101786.88;5071830;28;20023;-63
2023/09/07 06:11:17;;;;;;;26.73;18.00;;;;;;;15.29;100.00;101786.88;5075743;28;20036;-60
2023/09/07 06:13:42;;;;;;;29.33;19.30;;;;;;;15.34;100.00;101787.78;5075549;28;20028;-62
2023/09/07 06:16:07;;;;;;;26.52;17.50;;;;;;;15.39;100.00;101799.34;5075623;28;20040;-63
2023/09/07 06:18:33;;;;;;;26.02;17.73;;;;;;;15.43;100.00;101793.09;5075590;28;20035;-61
2023/09/07 06:20:58;;;;;;;28.08;18.92;;;;;;;15.47;100.00;101796.66;5074864;28;20036;-61
2023/09/07 06:23:23;;;;;;;26.55;19.33;;;;;;;15.55;100.00;101802.84;5075711;28;20047;-62
2023/09/07 06:25:49;;;;;;;25.60;18.13;;;;;;;15.64;100.00;101800.19;5075584;28;20025;-62
2023/09/07 06:28:14;;;;;;;26.80;19.23;;;;;;;15.65;100.00;101799.31;5075179;28;20468;-61
2023/09/07 06:30:40;;;;;;;26.73;18.95;;;;;;;15.71;100.00;101797.50;5075389;28;20028;-60
2023/09/07 06:33:05;;;;;;;27.25;19.42;;;;;;;15.77;100.00;101800.16;5074447;28;20373;-61
2023/09/07 06:35:30;;;;;;;27.95;19.33;;;;;;;15.83;100.00;101803.75;5075062;28;20039;-60
2023/09/07 06:37:56;;;;;;;27.63;19.75;;;;;;;15.92;100.00;101801.97;5075558;28;20036;-61
2023/09/07 06:40:22;;;;;;;26.45;19.42;;;;;;;16.03;100.00;101806.38;5075046;28;20060;-66
2023/09/07 06:42:47;;;;;;;29.05;20.42;;;;;;;16.10;100.00;101811.66;5074921;28;20101;-61
2023/09/07 06:45:12;;;;;;;29.15;19.95;;;;;;;16.16;100.00;101811.63;5074657;28;20113;-62
2023/09/07 06:47:38;;;;;;;28.35;19.95;;;;;;;16.21;100.00;101807.19;5074645;28;20016;-61
2023/09/07 06:50:05;;;;;;;27.98;19.85;;;;;;;16.31;100.00;101808.94;5074981;28;20108;-61
2023/09/07 06:52:30;;;;;;;28.13;21.38;;;;;;;16.40;100.00;101810.66;5075012;28;20032;-61
2023/09/07 06:54:56;;;;;;;28.92;21.67;;;;;;;16.45;100.00;101815.97;5074629;28;20048;-60
2023/09/07 06:57:21;;;;;;;27.75;20.90;;;;;;;16.56;100.00;101817.69;5073365;28;20024;-62
2023/09/07 06:59:48;;;;;;;29.48;22.75;;;;;;;16.63;100.00;101817.66;5070818;28;20379;-61
2023/09/07 07:02:14;;;;;;;28.48;22.40;;;;;;;16.72;100.00;101822.97;5068608;28;20028;-61
2023/09/07 07:04:39;;;;;;;28.55;22.15;;;;;;;16.79;100.00;101818.44;5070512;28;20025;-60
2023/09/07 07:07:05;;;;;;;29.15;21.27;;;;;;;16.85;100.00;101822.00;5068374;28;20029;-70
2023/09/07 07:09:31;;;;;;;27.35;19.75;;;;;;;16.97;100.00;101825.53;5071112;28;20036;-70
2023/09/07 07:11:57;;;;;;;27.75;19.52;;;;;;;17.05;100.00;101821.00;5073261;28;20024;-67
2023/09/07 07:14:23;;;;;;;27.73;18.92;;;;;;;17.13;100.00;101823.63;5072200;28;20025;-66
2023/09/07 07:16:48;;;;;;;27.27;18.60;;;;;;;17.27;100.00;101820.81;5070539;28;20035;-71
2023/09/07 07:19:13;;;;;;;26.25;16.98;;;;;;;17.36;100.00;101818.09;5070554;28;20017;-69
2023/09/07 07:21:39;;;;;;;25.52;17.08;;;;;;;17.48;100.00;101819.78;5064545;28;20517;-69
2023/09/07 07:24:07;;;;;;;25.73;16.95;;;;;;;17.55;100.00;101817.03;5070531;28;20468;-66
2023/09/07 07:26:32;;;;;;;26.52;16.60;;;;;;;17.69;100.00;101819.56;5069375;28;20487;-67
2023/09/07 07:28:58;;;;;;;24.77;15.75;;;;;;;17.80;100.00;101816.78;5070033;28;20055;-63
2023/09/07 07:31:23;;;;;;;24.88;14.75;;;;;;;17.98;100.00;101814.84;5070769;28;20036;-63
2023/09/07 07:33:49;;;;;;;24.48;14.00;;;;;;;18.12;100.00;101819.13;5074400;28;20070;-67
2023/09/07 07:36:14;;;;;;;24.63;13.98;;;;;;;18.22;100.00;101813.69;5074125;28;20078;-67
2023/09/07 07:38:39;;;;;;;23.35;13.80;;;;;;;18.32;100.00;101817.13;5072423;28;20116;-61
2023/09/07 07:41:05;;;;;;;23.63;13.40;;;;;;;18.40;100.00;101817.91;5073833;28;20115;-61
2023/09/07 07:43:32;;;;;;;24.45;12.30;;;;;;;18.53;100.00;101818.66;5089267;28;20044;-60
2023/09/07 07:45:57;;;;;;;22.08;11.75;;;;;;;18.67;100.00;101816.66;5073693;28;20036;-63
2023/09/07 07:48:23;;;;;;;22.25;11.13;;;;;;;18.78;100.00;101811.13;5089630;28;20021;-61
2023/09/07 07:50:48;;;;;;;21.98;10.73;;;;;;;18.89;100.00;101808.34;5073562;28;20074;-64
2023/09/07 07:53:14;;;;;;;21.58;10.95;;;;;;;19.07;100.00;101799.13;5073337;28;20033;-63
2023/09/07 07:55:40;;;;;;;21.70;10.43;;;;;;;19.26;100.00;101797.03;5073744;28;20103;-66
2023/09/07 07:58:09;;;;;;;21.50;10.23;;;;;;;19.55;100.00;101795.66;5089162;28;20120;-69
2023/09/07 08:00:35;;;;;;;21.98;10.00;;;;;;;19.72;100.00;101788.19;5073488;28;20035;-66
2023/09/07 08:03:05;;;;;;;21.33;10.00;;;;;;;19.80;100.00;101785.38;5069478;28;20024;-68
2023/09/07 08:05:31;;;;;;;22.33;9.63;;;;;;;19.91;100.00;101791.41;5073171;28;20104;-70
2023/09/07 08:07:57;;;;;;;20.40;9.27;;;;;;;19.93;100.00;101789.56;5069253;28;20052;-65
2023/09/07 08:10:22;;;;;;;20.67;9.40;;;;;;;20.03;100.00;101784.91;5073697;28;20111;-62
2023/09/07 08:12:48;;;;;;;20.70;9.00;;;;;;;20.15;100.00;101776.63;5073257;28;20414;-68
2023/09/07 08:15:14;;;;;;;20.45;8.73;;;;;;;20.26;100.00;101781.75;5073526;28;20098;-68
2023/09/07 08:17:40;;;;;;;20.08;8.52;;;;;;;20.40;100.00;101783.25;5073500;28;20414;-67
2023/09/07 08:20:07;;;;;;;20.42;8.40;;;;;;;20.49;100.00;101788.41;5073130;28;20020;-71
2023/09/07 08:22:36;;;;;;;19.77;8.35;;;;;;;20.69;100.00;101782.63;5073403;28;20491;-69
2023/09/07 08:25:01;;;;;;;20.13;7.70;;;;;;;20.87;100.00;101781.34;5073362;28;20025;-69
2023/09/07 08:27:27;;;;;;;18.73;7.80;;;;;;;21.01;100.00;101764.84;5073098;28;20111;-69
2023/09/07 08:29:53;;;;;;;19.75;7.60;;;;;;;21.02;100.00;101763.94;5073338;28;20459;-69
2023/09/07 08:32:18;;;;;;;19.65;7.32;;;;;;;21.07;100.00;101762.91;5071576;28;20036;-69
2023/09/07 08:34:44;;;;;;;20.10;7.78;;;;;;;21.14;100.00;101760.94;5072951;28;20029;-70
2023/09/07 08:37:09;;;;;;;19.17;7.53;;;;;;;21.20;100.00;101770.66;5073206;28;20024;-70
2023/09/07 08:39:36;;;;;;;18.67;7.40;;;;;;;21.38;100.00;101758.56;5072892;28;20160;-70
2023/09/07 08:42:02;;;;;;;18.85;7.50;;;;;;;21.91;100.00;101761.59;5072737;28;20041;-69
2023/09/07 08:44:28;;;;;;;18.92;7.28;;;;;;;22.38;100.00;101765.63;5073057;28;20055;-70
2023/09/07 08:46:55;;;;;;;19.67;7.32;;;;;;;22.49;100.00;101762.63;5072821;28;20062;-70
2023/09/07 08:49:23;;;;;;;18.10;7.30;;;;;;;22.79;100.00;101771.56;5073102;28;20493;-69
2023/09/07 08:51:48;;;;;;;19.60;7.32;;;;;;;23.49;100.00;101767.44;5072795;28;20032;-70
2023/09/07 08:54:14;;;;;;;18.70;7.10;;;;;;;24.18;100.00;101764.03;5072795;28;20025;-70
2023/09/07 08:56:39;;;;;;;19.25;7.00;;;;;;;24.95;100.00;101757.44;5072678;28;20033;-69
2023/09/07 08:59:05;;;;;;;18.85;7.03;;;;;;;25.54;100.00;101756.72;5072851;28;20111;-70
2023/09/07 09:01:31;;;;;;;19.02;6.57;;;;;;;26.07;100.00;101757.94;5072724;28;20033;-70
2023/09/07 09:03:57;;;;;;;17.15;6.35;;;;;;;26.48;100.00;101759.66;5072636;28;20012;-70
2023/09/07 09:06:23;;;;;;;17.00;6.40;;;;;;;26.60;100.00;101747.31;5072741;28;20035;-69
2023/09/07 09:08:54;;;;;;;17.33;6.40;;;;;;;26.89;100.00;101753.19;5072554;28;20020;-68
2023/09/07 09:11:20;;;;;;;17.90;6.30;;;;;;;27.37;100.00;101751.63;5071285;28;20021;-68
2023/09/07 09:13:47;;;;;;;17.52;5.90;;;;;;;27.72;100.00;101754.31;5072959;28;20032;-68
2023/09/07 09:16:13;;;;;;;16.83;5.97;;;;;;;28.01;100.00;101762.75;5072457;28;20113;-69
2023/09/07 09:18:52;;;;;;;17.58;5.68;;;;;;;28.48;100.00;101766.50;5073040;28;20033;-69
2023/09/07 09:21:17;;;;;;;16.60;5.93;;;;;;;28.89;93.19;101765.09;5078903;28;20142;-68
2023/09/07 09:23:43;;;;;;;17.70;5.95;;;;;;;29.07;94.31;101766.75;5079332;28;20487;-68
2023/09/07 09:26:08;;;;;;;17.08;5.63;;;;;;;29.13;96.19;101765.50;5079015;28;20029;-69
2023/09/07 09:28:34;;;;;;;16.02;6.07;;;;;;;29.23;94.59;101754.94;5079317;28;20033;-68
2023/09/07 09:31:03;;;;;;;16.95;5.90;;;;;;;28.97;100.00;101754.66;5079110;28;20028;-68
2023/09/07 09:33:33;;;;;;;19.90;5.70;;;;;;;28.20;100.00;101749.03;5075344;28;20039;-69
2023/09/07 09:35:59;;;;;;;17.20;5.90;;;;;;;27.66;100.00;101743.78;5075108;28;20025;-69
2023/09/07 09:38:25;;;;;;;17.92;5.80;;;;;;;27.46;100.00;101745.75;5078918;28;20024;-69
2023/09/07 09:40:51;;;;;;;16.33;5.97;;;;;;;27.78;100.00;101740.41;5077507;28;20383;-69
2023/09/07 09:43:19;;;;;;;17.73;5.78;;;;;;;28.53;100.00;101746.25;5078374;28;20045;-69
2023/09/07 09:45:45;;;;;;;16.58;5.88;;;;;;;29.55;85.84;101742.97;5074760;28;20029;-69
2023/09/07 09:48:11;;;;;;;16.13;5.43;;;;;;;30.42;75.62;101743.91;5078717;28;20043;-64
2023/09/07 09:50:38;;;;;;;16.25;5.88;;;;;;;31.16;71.09;101746.25;5077745;28;20035;-70
2023/09/07 09:53:07;;;;;;;16.25;5.63;;;;;;;31.53;69.04;101746.44;5078947;28;20059;-68
2023/09/07 09:55:33;;;;;;;16.40;5.70;;;;;;;31.88;64.74;101742.19;5078901;28;20393;-70
2023/09/07 09:57:58;;;;;;;16.58;5.70;;;;;;;32.32;61.27;101738.97;5078830;28;20070;-66
2023/09/07 10:00:28;;;;;;;14.70;5.30;;;;;;;32.95;57.51;101737.97;5079060;28;20032;-67
2023/09/07 10:03:16;;;;;;;15.85;5.22;;;;;;;33.38;58.42;101739.25;5078778;28;20032;-65
2023/09/07 10:05:44;;;;;;;15.27;5.15;;;;;;;33.46;54.23;101740.41;5078666;28;20531;-65
2023/09/07 10:08:13;;;;;;;15.10;4.95;;;;;;;33.58;52.75;101743.16;5078738;28;20095;-65
2023/09/07 10:10:40;;;;;;;16.58;5.45;;;;;;;33.84;53.56;101744.75;5078916;28;20105;-62
2023/09/07 10:13:06;;;;;;;15.85;5.32;;;;;;;34.33;53.21;101734.38;5078475;28;20029;-70
2023/09/07 10:15:38;;;;;;;14.30;5.00;;;;;;;35.26;49.94;101735.66;5078699;28;20058;-67
2023/09/07 10:18:15;;;;;;;16.10;4.82;;;;;;;35.37;48.82;101733.88;5078750;28;20048;-69
2023/09/07 10:20:49;;;;;;;15.75;5.20;;;;;;;35.37;48.01;101726.53;5079003;28;20473;-70
2023/09/07 10:23:14;;;;;;;15.82;5.20;;;;;;;35.35;46.66;101730.41;5074796;28;20044;-67
2023/09/07 10:25:40;;;;;;;16.60;5.07;;;;;;;35.77;45.98;101733.13;5078517;28;20024;-66
2023/09/07 10:28:05;;;;;;;15.77;4.80;;;;;;;35.89;45.69;101728.41;5078724;28;20597;-62
2023/09/07 10:30:32;;;;;;;14.20;4.60;;;;;;;36.47;43.65;101736.88;5077767;28;20028;-65
2023/09/07 10:32:58;;;;;;;15.07;4.70;;;;;;;36.67;42.14;101730.53;5075551;28;20035;-62
2023/09/07 10:35:25;;;;;;;14.10;4.50;;;;;;;36.39;42.95;101722.97;5075427;28;20024;-68
2023/09/07 10:37:51;;;;;;;13.05;4.70;;;;;;;36.74;42.57;101721.56;5075253;28;20043;-65
2023/09/07 10:40:21;;;;;;;12.68;4.53;;;;;;;36.79;40.21;101711.00;5075191;28;20025;-69
2023/09/07 10:42:47;;;;;;;14.38;4.78;;;;;;;36.20;41.56;101711.88;5071486;28;20506;-64
2023/09/07 10:45:16;;;;;;;14.25;4.95;;;;;;;35.52;43.00;101707.81;5075142;28;20037;-69
2023/09/07 10:47:45;;;;;;;15.45;4.78;;;;;;;35.39;43.50;101708.03;5074146;28;20021;-65
2023/09/07 10:50:14;;;;;;;15.93;5.00;;;;;;;36.18;43.56;101708.41;5075029;28;20047;-67
2023/09/07 10:52:41;;;;;;;13.43;4.70;;;;;;;36.83;40.89;101702.44;5075047;28;20059;-68
2023/09/07 10:55:08;;;;;;;13.02;4.60;;;;;;;37.45;41.40;101703.81;5075003;28;20060;-65
2023/09/07 10:57:42;;;;;;;12.90;4.40;;;;;;;38.19;39.80;101706.75;5074871;28;20028;-69
2023/09/07 11:00:10;;;;;;;12.57;4.30;;;;;;;38.89;36.56;101701.47;5075028;28;20025;-69